createdAt,value
2019-05-10T00:02:46.177Z,9.18
2019-05-10T00:07:55.017Z,10.95
2019-05-10T00:13:03.853Z,8.97
2019-05-10T00:18:12.714Z,8.72
2019-05-10T00:23:21.561Z,11.05
2019-05-10T00:28:30.437Z,7.90
2019-05-10T00:33:39.321Z,9.96
2019-05-10T00:38:48.175Z,10.97
2019-05-10T00:43:57.103Z,9.20
2019-05-10T00:49:05.972Z,8.93
2019-05-10T00:54:14.879Z,23.22
2019-05-10T00:59:23.745Z,9.47
2019-05-10T01:04:32.618Z,8.27
2019-05-10T01:09:41.505Z,9.30
2019-05-10T01:14:50.311Z,10.03
2019-05-10T01:19:59.274Z,7.31
2019-05-10T01:25:08.142Z,9.38
2019-05-10T01:30:17.044Z,8.61
2019-05-10T01:35:25.909Z,7.08
2019-05-10T01:40:34.775Z,9.59
2019-05-10T01:45:43.636Z,8.31
2019-05-10T01:50:52.590Z,6.52
2019-05-10T01:56:01.481Z,9.20
2019-05-10T02:01:10.321Z,9.27
2019-05-10T02:06:19.191Z,6.63
2019-05-10T02:11:28.100Z,6.42
2019-05-10T02:16:36.947Z,6.32
2019-05-10T02:21:46.063Z,9.47
2019-05-10T02:26:54.929Z,7.78
2019-05-10T02:32:03.814Z,9.59
2019-05-10T02:37:12.706Z,8.37
2019-05-10T02:42:21.545Z,8.67
2019-05-10T02:47:30.424Z,9.50
2019-05-10T02:52:39.300Z,9.94
2019-05-10T02:57:46.723Z,9.73
2019-05-10T03:02:55.631Z,8.28
2019-05-10T03:08:04.537Z,24.70
2019-05-10T03:13:13.395Z,19.88
2019-05-10T03:18:22.313Z,13.41
2019-05-10T03:23:31.147Z,10.26
2019-05-10T03:28:40.025Z,11.44
2019-05-10T03:33:55.752Z,9.49
2019-05-10T03:38:57.307Z,10.34
2019-05-10T03:44:06.178Z,8.51
2019-05-10T03:49:15.056Z,9.24
2019-05-10T03:54:23.940Z,7.37
2019-05-10T03:59:32.793Z,8.09
2019-05-10T04:04:41.644Z,9.90
2019-05-10T04:09:50.507Z,11.70
2019-05-10T04:14:59.532Z,10.31
2019-05-10T04:20:08.371Z,15.00
2019-05-10T04:25:17.258Z,9.51
2019-05-10T04:30:26.100Z,13.78
2019-05-10T04:35:35.051Z,12.62
2019-05-10T04:40:43.889Z,14.51
2019-05-10T04:45:52.792Z,15.13
2019-05-10T04:51:01.656Z,13.73
2019-05-10T04:56:10.531Z,16.19
2019-05-10T05:01:19.421Z,22.45
2019-05-10T05:06:28.261Z,40.93
2019-05-10T05:11:40.885Z,20.56
2019-05-10T05:16:39.720Z,29.71
2019-05-10T05:21:48.593Z,23.57
2019-05-10T05:26:57.454Z,28.88
2019-05-10T05:32:06.356Z,20.41
2019-05-10T05:37:15.239Z,21.65
2019-05-10T05:42:27.892Z,17.48
2019-05-10T05:47:37.696Z,16.48
2019-05-10T05:52:40.957Z,16.28
2019-05-10T05:57:49.803Z,14.60
2019-05-10T06:02:58.740Z,21.34
2019-05-10T06:08:21.858Z,15.55
2019-05-10T06:13:16.017Z,20.44
2019-05-10T06:18:24.844Z,11.19
2019-05-10T06:23:34.987Z,12.10
2019-05-10T06:28:58.424Z,10.92
2019-05-10T06:33:50.452Z,12.04
2019-05-10T06:38:59.307Z,8.73
2019-05-10T06:44:08.149Z,10.60
2019-05-10T06:49:17.009Z,8.46
2019-05-10T06:54:25.931Z,7.36
2019-05-10T06:59:34.743Z,8.65
2019-05-10T07:04:43.596Z,6.27
2019-05-10T07:10:08.295Z,8.27
2019-05-10T07:15:03.480Z,10.37
2019-05-10T07:20:09.259Z,10.40
2019-05-10T07:25:18.084Z,9.01
2019-05-10T07:30:26.953Z,7.50
2019-05-10T07:35:36.812Z,8.85
2019-05-10T07:40:44.234Z,11.51
2019-05-10T07:45:58.834Z,10.90
2019-05-10T07:51:01.467Z,8.55
2019-05-10T07:56:10.332Z,11.41
2019-05-10T08:01:29.118Z,8.73
2019-05-10T08:06:31.969Z,10.71
2019-05-10T08:11:35.959Z,9.94
2019-05-10T08:16:49.871Z,11.67
2019-05-10T08:21:56.524Z,11.83
2019-05-10T08:27:09.751Z,9.06
2019-05-10T08:32:12.571Z,11.34
2019-05-10T08:37:30.771Z,10.05
2019-05-10T08:42:37.992Z,13.79
2019-05-10T08:47:35.172Z,10.47
2019-05-10T08:52:44.064Z,12.08
2019-05-10T08:57:52.927Z,10.31
2019-05-10T09:03:09.253Z,9.49
2019-05-10T09:08:11.664Z,10.56
2019-05-10T09:13:18.563Z,9.30
2019-05-10T09:18:27.516Z,9.94
2019-05-10T09:23:36.377Z,8.50
2019-05-10T09:28:47.481Z,8.68
2019-05-10T09:33:54.329Z,9.33
2019-05-10T09:39:03.418Z,9.07
2019-05-10T09:44:12.897Z,8.16
2019-05-10T09:49:18.932Z,9.23
2019-05-10T09:54:29.609Z,9.86
2019-05-10T09:59:36.859Z,9.00
2019-05-10T10:04:44.571Z,9.89
2019-05-10T10:09:53.443Z,8.08
2019-05-10T10:15:02.260Z,10.01
2019-05-10T10:20:11.144Z,8.77
2019-05-10T10:25:19.997Z,8.00
2019-05-10T10:30:31.380Z,9.32
2019-05-10T10:35:38.077Z,8.92
2019-05-10T10:40:46.181Z,10.25
2019-05-10T10:45:53.983Z,7.60
2019-05-10T10:51:02.879Z,7.36
2019-05-10T10:56:11.728Z,7.70
2019-05-10T11:01:25.357Z,9.10
2019-05-10T11:06:28.965Z,6.49
2019-05-10T11:11:39.149Z,7.55
2019-05-10T11:16:46.893Z,8.40
2019-05-10T11:21:54.845Z,7.59
2019-05-10T11:27:07.308Z,5.00
2019-05-10T11:32:16.345Z,8.25
2019-05-10T11:37:31.238Z,8.81
2019-05-10T11:42:30.844Z,7.50
2019-05-10T11:47:37.271Z,6.76
2019-05-10T11:52:46.160Z,5.98
2019-05-10T11:58:02.895Z,6.22
2019-05-10T12:03:08.921Z,7.95
2019-05-10T12:08:12.950Z,6.75
2019-05-10T12:13:24.735Z,8.39
2019-05-10T12:18:28.607Z,7.53
2019-05-10T12:23:45.754Z,6.92
2019-05-10T12:28:45.887Z,7.47
2019-05-10T12:33:54.804Z,9.36
2019-05-10T12:39:03.688Z,7.80
2019-05-10T12:44:12.535Z,11.72
2019-05-10T12:49:21.516Z,9.27
2019-05-10T12:54:31.626Z,6.11
2019-05-10T12:59:38.612Z,7.62
2019-05-10T13:04:52.449Z,8.17
2019-05-10T13:10:03.197Z,7.11
2019-05-10T13:15:04.259Z,5.40
2019-05-10T13:20:13.131Z,6.33
2019-05-10T13:25:22.004Z,7.41
2019-05-10T13:30:30.855Z,9.69
2019-05-10T13:35:39.779Z,7.15
2019-05-10T13:40:48.623Z,7.72
2019-05-10T13:45:57.511Z,6.19
2019-05-10T13:51:06.379Z,7.06
2019-05-10T13:56:15.289Z,7.61
2019-05-10T14:01:24.112Z,8.17
2019-05-10T14:06:33.004Z,7.46
2019-05-10T14:11:46.451Z,5.88
2019-05-10T14:16:50.401Z,7.84
2019-05-10T14:21:59.224Z,6.71
2019-05-10T14:27:08.084Z,7.60
2019-05-10T14:32:16.946Z,6.36
2019-05-10T14:37:25.813Z,8.14
2019-05-10T14:42:34.657Z,7.17
2019-05-10T14:47:48.300Z,6.33
2019-05-10T14:52:51.885Z,8.72
2019-05-10T14:58:00.812Z,8.06
2019-05-10T15:03:09.649Z,7.91
2019-05-10T15:08:18.595Z,7.95
2019-05-10T15:13:28.356Z,7.97
2019-05-10T15:18:35.867Z,4.39
2019-05-10T15:23:44.711Z,8.53
2019-05-10T15:28:53.596Z,8.23
2019-05-10T15:34:05.142Z,5.84
2019-05-10T15:39:10.893Z,5.96
2019-05-10T15:44:25.534Z,8.47
2019-05-10T15:49:28.140Z,9.50
2019-05-10T15:54:38.269Z,8.42
2019-05-10T15:59:45.456Z,8.09
2019-05-10T16:04:54.315Z,7.96
2019-05-10T16:10:03.221Z,13.45
2019-05-10T16:15:13.872Z,15.05
2019-05-10T16:20:20.608Z,17.47
2019-05-10T16:25:32.909Z,11.90
2019-05-10T16:30:37.931Z,11.98
2019-05-10T16:35:49.866Z,12.01
2019-05-10T16:40:58.549Z,8.78
2019-05-10T16:46:03.623Z,10.37
2019-05-10T16:51:12.835Z,26.94
2019-05-10T16:56:21.316Z,15.84
2019-05-10T17:01:29.339Z,10.70
2019-05-10T17:06:40.527Z,9.27
2019-05-10T17:11:47.255Z,9.78
2019-05-10T17:16:58.845Z,9.63
2019-05-10T17:22:03.403Z,9.42
2019-05-10T17:27:12.248Z,9.71
2019-05-10T17:32:24.678Z,15.74
2019-05-10T17:37:29.781Z,14.89
2019-05-10T17:42:41.228Z,12.06
2019-05-10T17:47:46.257Z,12.78
2019-05-10T17:52:55.179Z,11.56
2019-05-10T17:58:04.068Z,15.39
2019-05-10T18:03:12.924Z,14.90
2019-05-10T18:08:21.775Z,17.52
2019-05-10T18:13:35.403Z,16.06
2019-05-10T18:18:46.400Z,16.03
2019-05-10T18:23:47.453Z,15.71
2019-05-10T18:28:56.307Z,13.71
2019-05-10T18:34:05.169Z,8.94
2019-05-10T18:39:15.523Z,14.31
2019-05-10T18:44:22.415Z,10.56
2019-05-10T18:49:31.260Z,13.52
2019-05-10T18:54:40.111Z,11.18
2019-05-10T18:59:48.952Z,8.39
2019-05-10T19:04:57.837Z,7.65
2019-05-10T19:10:06.727Z,12.07
2019-05-10T19:15:15.918Z,11.56
2019-05-10T19:20:24.182Z,10.64
2019-05-10T19:25:33.055Z,10.24
2019-05-10T19:30:41.909Z,13.98
2019-05-10T19:35:50.849Z,10.85
2019-05-10T19:40:59.896Z,9.83
2019-05-10T19:46:08.765Z,8.29
2019-05-10T19:51:17.643Z,9.39
2019-05-10T19:56:30.219Z,5.72
2019-05-10T20:01:34.997Z,8.03
2019-05-10T20:06:43.805Z,6.78
2019-05-10T20:11:52.683Z,7.69
2019-05-10T20:17:01.675Z,7.65
2019-05-10T20:22:10.604Z,6.80
2019-05-10T20:27:19.480Z,7.27
2019-05-10T20:32:28.349Z,6.60
2019-05-10T20:37:37.276Z,7.11
2019-05-10T20:42:46.148Z,6.76
2019-05-10T20:47:57.289Z,7.04
2019-05-10T20:52:56.167Z,6.39
2019-05-10T20:58:05.548Z,8.89
2019-05-10T21:03:13.491Z,7.10
2019-05-10T21:08:22.627Z,7.49
2019-05-10T21:13:31.477Z,5.66
2019-05-10T21:18:40.363Z,5.60
2019-05-10T21:23:49.324Z,5.93
2019-05-10T21:28:58.144Z,15.91
2019-05-10T21:34:09.772Z,12.22
2019-05-10T21:39:15.439Z,11.33
2019-05-10T21:44:24.311Z,12.87
2019-05-10T21:49:33.137Z,7.95
2019-05-10T21:54:42.068Z,8.80
2019-05-10T21:59:50.924Z,9.57
2019-05-10T22:04:59.777Z,9.77
2019-05-10T22:10:08.620Z,9.56
2019-05-10T22:15:17.473Z,7.97
2019-05-10T22:20:26.413Z,11.83
2019-05-10T22:25:35.246Z,13.57
2019-05-10T22:30:44.128Z,10.57
2019-05-10T22:35:52.957Z,11.96
2019-05-10T22:41:01.863Z,12.20
2019-05-10T22:46:10.742Z,8.52
2019-05-10T22:51:19.665Z,8.39
2019-05-10T22:56:28.630Z,9.92
2019-05-10T23:01:49.577Z,11.56
2019-05-10T23:06:38.443Z,14.88
2019-05-10T23:11:47.347Z,12.11
2019-05-10T23:16:56.186Z,10.89
2019-05-10T23:22:05.053Z,11.79
2019-05-10T23:27:13.960Z,11.16
2019-05-10T23:32:22.808Z,16.36
2019-05-10T23:37:31.647Z,11.85
2019-05-10T23:42:40.483Z,15.59
2019-05-10T23:47:49.394Z,12.32
2019-05-10T23:52:58.225Z,13.89
2019-05-10T23:58:07.115Z,14.81
